createdAt,value
2023-03-31T00:01:44.462Z,100.00
2023-03-31T00:04:14.050Z,100.00
2023-03-31T00:06:44.012Z,100.00
2023-03-31T00:09:24.895Z,100.00
2023-03-31T00:11:55.274Z,100.00
2023-03-31T00:14:24.135Z,100.00
2023-03-31T00:16:53.088Z,100.00
2023-03-31T00:19:21.966Z,100.00
2023-03-31T00:21:51.921Z,100.00
2023-03-31T00:24:20.722Z,100.00
2023-03-31T00:26:50.236Z,100.00
2023-03-31T00:29:18.945Z,100.00
2023-03-31T00:31:48.492Z,100.00
2023-03-31T00:34:17.239Z,100.00
2023-03-31T00:36:48.879Z,100.00
2023-03-31T00:39:20.308Z,100.00
2023-03-31T00:41:49.169Z,100.00
2023-03-31T00:44:25.901Z,100.00
2023-03-31T00:47:20.287Z,100.00
2023-03-31T00:49:57.182Z,100.00
2023-03-31T00:52:38.799Z,100.00
2023-03-31T00:55:15.643Z,100.00
2023-03-31T00:57:48.260Z,100.00
2023-03-31T01:00:18.828Z,100.00
2023-03-31T01:02:59.114Z,100.00
2023-03-31T01:05:47.490Z,100.00
2023-03-31T01:08:20.214Z,100.00
2023-03-31T01:10:58.311Z,100.00
2023-03-31T01:13:28.062Z,100.00
2023-03-31T01:15:56.941Z,100.00
2023-03-31T01:18:28.317Z,100.00
2023-03-31T01:22:06.009Z,100.00
2023-03-31T01:25:38.837Z,100.00
2023-03-31T01:28:38.934Z,100.00
2023-03-31T01:32:05.127Z,100.00
2023-03-31T01:35:11.431Z,100.00
2023-03-31T01:38:33.330Z,100.00
2023-03-31T01:41:47.872Z,100.00
2023-03-31T01:44:52.552Z,100.00
2023-03-31T01:47:44.771Z,100.00
2023-03-31T01:50:58.724Z,100.00
2023-03-31T01:54:08.812Z,100.00
2023-03-31T01:56:52.845Z,100.00
2023-03-31T01:59:59.694Z,100.00
2023-03-31T02:03:05.615Z,100.00
2023-03-31T02:05:45.076Z,100.00
2023-03-31T02:08:36.696Z,100.00
2023-03-31T02:11:06.376Z,100.00
2023-03-31T02:13:38.640Z,100.00
2023-03-31T02:16:19.261Z,100.00
2023-03-31T02:18:50.381Z,100.00
2023-03-31T02:21:22.962Z,100.00
2023-03-31T02:23:52.979Z,100.00
2023-03-31T02:26:31.382Z,100.00
2023-03-31T02:29:00.112Z,100.00
2023-03-31T02:31:51.860Z,100.00
2023-03-31T02:34:21.183Z,100.00
2023-03-31T02:36:51.434Z,100.00
2023-03-31T02:39:31.473Z,100.00
2023-03-31T02:42:07.516Z,100.00
2023-03-31T02:44:38.859Z,100.00
2023-03-31T02:47:15.782Z,100.00
2023-03-31T02:49:54.321Z,100.00
2023-03-31T02:52:59.383Z,100.00
2023-03-31T02:56:27.416Z,100.00
2023-03-31T02:59:25.789Z,100.00
2023-03-31T03:02:21.703Z,100.00
2023-03-31T03:05:39.494Z,100.00
2023-03-31T03:09:02.496Z,100.00
2023-03-31T03:11:53.410Z,100.00
2023-03-31T03:14:49.556Z,100.00
2023-03-31T03:17:35.451Z,100.00
2023-03-31T03:20:10.901Z,100.00
2023-03-31T03:22:41.413Z,100.00
2023-03-31T03:25:14.516Z,100.00
2023-03-31T03:27:42.360Z,100.00
2023-03-31T03:30:14.447Z,100.00
2023-03-31T03:32:44.037Z,100.00
2023-03-31T03:35:13.178Z,100.00
2023-03-31T03:37:42.731Z,100.00
2023-03-31T03:40:12.774Z,100.00
2023-03-31T03:42:41.537Z,100.00
2023-03-31T03:45:11.586Z,100.00
2023-03-31T03:47:40.692Z,100.00
2023-03-31T03:50:14.027Z,100.00
2023-03-31T03:52:44.696Z,100.00
2023-03-31T03:55:14.486Z,100.00
2023-03-31T03:57:43.294Z,100.00
2023-03-31T04:00:12.880Z,100.00
2023-03-31T04:02:42.563Z,100.00
2023-03-31T04:05:11.432Z,100.00
2023-03-31T04:07:41.137Z,100.00
2023-03-31T04:10:10.559Z,100.00
2023-03-31T04:12:40.070Z,100.00
2023-03-31T04:15:09.847Z,100.00
2023-03-31T04:17:39.660Z,100.00
2023-03-31T04:20:11.929Z,100.00
2023-03-31T04:22:41.237Z,100.00
2023-03-31T04:25:16.982Z,100.00
2023-03-31T04:27:55.105Z,100.00
2023-03-31T04:30:33.680Z,100.00
2023-03-31T04:33:06.849Z,100.00
2023-03-31T04:35:50.867Z,100.00
2023-03-31T04:38:27.556Z,100.00
2023-03-31T04:40:56.582Z,100.00
2023-03-31T04:43:25.516Z,100.00
2023-03-31T04:45:54.321Z,100.00
2023-03-31T04:48:22.296Z,100.00
2023-03-31T04:50:51.002Z,100.00
2023-03-31T04:53:18.932Z,100.00
2023-03-31T04:55:47.640Z,100.00
2023-03-31T04:58:16.743Z,100.00
2023-03-31T05:00:45.651Z,100.00
2023-03-31T05:03:14.809Z,100.00
2023-03-31T05:05:42.811Z,100.00
2023-03-31T05:08:11.542Z,100.00
2023-03-31T05:10:40.257Z,100.00
2023-03-31T05:13:11.369Z,100.00
2023-03-31T05:15:40.816Z,100.00
2023-03-31T05:18:09.562Z,100.00
2023-03-31T05:20:37.542Z,100.00
2023-03-31T05:23:07.149Z,100.00
2023-03-31T05:25:35.420Z,100.00
2023-03-31T05:28:04.672Z,100.00
2023-03-31T05:30:32.741Z,100.00
2023-03-31T05:33:01.289Z,99.44
2023-03-31T05:35:30.254Z,100.00
2023-03-31T05:37:58.893Z,100.00
2023-03-31T05:40:26.750Z,100.00
2023-03-31T05:42:54.571Z,100.00
2023-03-31T05:45:23.294Z,100.00
2023-03-31T05:47:52.043Z,98.73
2023-03-31T05:50:20.901Z,99.68
2023-03-31T05:52:48.716Z,99.14
2023-03-31T05:55:18.829Z,97.21
2023-03-31T05:57:48.331Z,95.41
2023-03-31T06:00:18.050Z,85.92
2023-03-31T06:02:46.074Z,89.66
2023-03-31T06:05:14.918Z,87.26
2023-03-31T06:07:43.679Z,89.97
2023-03-31T06:10:12.585Z,91.61
2023-03-31T06:12:41.400Z,90.90
2023-03-31T06:15:10.536Z,88.75
2023-03-31T06:17:39.362Z,77.74
2023-03-31T06:20:24.080Z,70.83
2023-03-31T06:22:55.432Z,59.14
2023-03-31T06:25:24.272Z,63.23
2023-03-31T06:27:52.118Z,57.21
2023-03-31T06:30:20.872Z,47.24
2023-03-31T06:32:48.641Z,47.38
2023-03-31T06:35:17.457Z,45.13
2023-03-31T06:37:45.239Z,45.44
2023-03-31T06:40:13.538Z,44.18
2023-03-31T06:42:42.279Z,43.21
2023-03-31T06:45:11.425Z,50.89
2023-03-31T06:47:41.638Z,54.50
2023-03-31T06:50:11.729Z,54.28
2023-03-31T06:52:41.371Z,55.37
2023-03-31T06:55:10.735Z,47.77
2023-03-31T06:57:39.310Z,43.55
2023-03-31T07:00:09.467Z,43.93
2023-03-31T07:02:38.267Z,43.84
2023-03-31T07:05:06.943Z,52.03
2023-03-31T07:07:35.686Z,46.24
2023-03-31T07:10:05.023Z,53.34
2023-03-31T07:12:34.552Z,51.05
2023-03-31T07:15:03.345Z,48.49
2023-03-31T07:17:31.974Z,44.85
2023-03-31T07:20:00.724Z,41.82
2023-03-31T07:22:29.389Z,43.04
2023-03-31T07:24:57.942Z,41.53
2023-03-31T07:27:26.580Z,51.30
2023-03-31T07:29:55.610Z,64.16
2023-03-31T07:32:24.840Z,65.82
2023-03-31T07:34:54.183Z,68.35
2023-03-31T07:37:22.879Z,70.66
2023-03-31T07:39:51.307Z,69.53
2023-03-31T07:42:19.225Z,73.30
2023-03-31T07:44:47.794Z,70.51
2023-03-31T07:47:16.591Z,69.22
2023-03-31T07:49:44.405Z,67.54
2023-03-31T07:52:13.054Z,68.18
2023-03-31T07:54:41.683Z,70.34
2023-03-31T07:57:10.421Z,71.62
2023-03-31T07:59:39.244Z,71.67
2023-03-31T08:02:08.092Z,70.70
2023-03-31T08:04:35.993Z,66.47
2023-03-31T08:07:05.542Z,65.47
2023-03-31T08:09:33.308Z,66.35
2023-03-31T08:12:01.146Z,66.20
2023-03-31T08:14:40.503Z,67.10
2023-03-31T08:17:11.094Z,65.33
2023-03-31T08:19:39.936Z,61.90
2023-03-31T08:22:08.623Z,64.69
2023-03-31T08:24:37.280Z,66.80
2023-03-31T08:27:11.951Z,67.11
2023-03-31T08:29:40.263Z,67.38
2023-03-31T08:32:09.147Z,64.77
2023-03-31T08:34:38.342Z,64.71
2023-03-31T08:37:06.231Z,66.35
2023-03-31T08:39:34.455Z,64.77
2023-03-31T08:42:41.335Z,66.04
2023-03-31T08:45:25.275Z,64.35
2023-03-31T08:48:27.672Z,62.96
2023-03-31T08:51:42.497Z,64.26
2023-03-31T08:54:42.461Z,61.88
2023-03-31T08:57:26.661Z,61.60
2023-03-31T08:59:59.025Z,59.58
2023-03-31T09:02:53.339Z,60.77
2023-03-31T09:05:28.712Z,60.25
2023-03-31T09:08:13.311Z,56.96
2023-03-31T09:11:35.787Z,57.87
2023-03-31T09:14:16.573Z,60.52
2023-03-31T09:17:29.201Z,60.64
2023-03-31T09:20:33.565Z,58.74
2023-03-31T09:23:43.264Z,53.26
2023-03-31T09:26:36.644Z,53.65
2023-03-31T09:29:40.782Z,58.46
2023-03-31T09:32:18.218Z,58.74
2023-03-31T09:34:52.619Z,60.03
2023-03-31T09:37:27.559Z,57.69
2023-03-31T09:39:55.319Z,55.90
2023-03-31T09:42:23.092Z,59.77
2023-03-31T09:44:51.973Z,59.31
2023-03-31T09:47:40.603Z,58.30
2023-03-31T09:50:11.019Z,56.94
2023-03-31T09:52:49.133Z,57.25
2023-03-31T09:55:45.821Z,54.60
2023-03-31T09:58:17.865Z,55.25
2023-03-31T10:01:05.505Z,54.68
2023-03-31T10:03:38.083Z,55.09
2023-03-31T10:06:11.311Z,54.63
2023-03-31T10:08:49.703Z,53.23
2023-03-31T10:11:18.841Z,51.73
2023-03-31T10:14:15.934Z,52.99
2023-03-31T10:16:56.820Z,51.90
2023-03-31T10:19:39.984Z,52.51
2023-03-31T10:22:24.009Z,50.60
2023-03-31T10:24:54.257Z,51.87
2023-03-31T10:27:30.818Z,52.82
2023-03-31T10:30:04.841Z,52.96
2023-03-31T10:32:41.036Z,51.26
2023-03-31T10:35:28.104Z,56.15
2023-03-31T10:38:12.603Z,57.96
2023-03-31T10:40:56.347Z,57.60
2023-03-31T10:43:59.081Z,55.98
2023-03-31T10:46:51.470Z,52.59
2023-03-31T10:49:23.194Z,51.09
2023-03-31T10:51:59.455Z,50.71
2023-03-31T10:54:27.927Z,50.69
2023-03-31T10:57:05.749Z,51.88
2023-03-31T10:59:58.934Z,49.98
2023-03-31T11:02:59.763Z,50.57
2023-03-31T11:05:52.052Z,51.55
2023-03-31T11:08:30.776Z,51.86
2023-03-31T11:11:53.627Z,50.42
2023-03-31T11:15:00.146Z,48.13
2023-03-31T11:18:13.753Z,50.89
2023-03-31T11:21:35.337Z,50.15
2023-03-31T11:24:48.874Z,51.29
2023-03-31T11:27:19.909Z,50.83
2023-03-31T11:30:52.806Z,50.75
2023-03-31T11:34:00.697Z,51.78
2023-03-31T11:36:57.446Z,53.47
2023-03-31T11:39:54.698Z,52.95
2023-03-31T11:42:59.412Z,51.88
2023-03-31T11:45:43.736Z,50.42
2023-03-31T15:54:42.723Z,59.07
2023-03-31T15:57:20.282Z,58.91
2023-03-31T15:59:55.784Z,59.10
2023-03-31T16:02:47.427Z,59.82
2023-03-31T16:05:54.407Z,60.04
2023-03-31T16:08:48.885Z,60.45
2023-03-31T16:11:31.425Z,60.43
2023-03-31T16:14:17.005Z,60.69
2023-03-31T16:16:57.472Z,61.61
2023-03-31T16:19:39.535Z,63.21
2023-03-31T16:22:23.579Z,61.88
2023-03-31T16:24:52.152Z,62.60
2023-03-31T16:27:20.431Z,62.90
2023-03-31T16:29:51.464Z,61.92
2023-03-31T16:32:21.476Z,61.43
2023-03-31T16:35:03.133Z,59.52
2023-03-31T16:37:31.341Z,60.31
2023-03-31T16:40:00.183Z,61.02
2023-03-31T16:42:28.959Z,60.38
2023-03-31T16:45:13.003Z,61.07
2023-03-31T16:47:46.214Z,60.77
2023-03-31T16:50:26.627Z,62.11
2023-03-31T16:52:54.812Z,62.82
2023-03-31T16:55:22.777Z,62.42
2023-03-31T16:57:54.732Z,63.65
2023-03-31T17:00:23.520Z,63.40
2023-03-31T17:03:01.864Z,63.28
2023-03-31T17:05:46.061Z,62.86
2023-03-31T17:08:17.089Z,63.31
2023-03-31T17:11:14.506Z,63.55
2023-03-31T17:13:44.909Z,64.16
2023-03-31T17:16:21.915Z,64.11
2023-03-31T17:18:56.485Z,64.94
2023-03-31T17:21:31.520Z,64.64
2023-03-31T17:24:09.436Z,65.08
2023-03-31T17:26:37.986Z,66.35
2023-03-31T17:29:06.589Z,66.15
2023-03-31T17:31:34.441Z,66.27
2023-03-31T17:34:03.051Z,65.45
2023-03-31T17:36:31.853Z,65.83
2023-03-31T17:39:02.830Z,66.08
2023-03-31T17:41:31.026Z,66.50
2023-03-31T17:44:04.197Z,66.65
2023-03-31T17:46:35.982Z,67.33
2023-03-31T17:49:04.915Z,66.74
2023-03-31T17:51:34.825Z,65.97
2023-03-31T17:54:04.238Z,65.96
2023-03-31T17:56:32.992Z,66.77
2023-03-31T17:59:02.005Z,66.04
2023-03-31T18:01:31.337Z,66.89
2023-03-31T18:04:03.867Z,67.01
2023-03-31T18:06:32.135Z,66.65
2023-03-31T18:09:00.143Z,66.66
2023-03-31T18:11:28.436Z,67.36
2023-03-31T18:14:00.408Z,67.43
2023-03-31T18:16:29.666Z,67.73
2023-03-31T18:18:58.978Z,68.04
2023-03-31T18:21:27.855Z,67.75
2023-03-31T18:23:55.809Z,68.51
2023-03-31T18:26:27.303Z,67.60
2023-03-31T18:28:59.329Z,68.71
2023-03-31T18:31:27.481Z,68.62
2023-03-31T18:33:58.932Z,69.55
2023-03-31T18:36:28.616Z,68.90
2023-03-31T18:38:57.574Z,68.46
2023-03-31T18:41:27.196Z,69.30
2023-03-31T18:43:55.883Z,69.22
2023-03-31T18:46:27.286Z,69.20
2023-03-31T18:48:55.936Z,68.59
2023-03-31T18:51:24.270Z,68.31
2023-03-31T18:53:52.179Z,68.94
2023-03-31T18:56:23.332Z,68.92
2023-03-31T18:58:51.953Z,69.62
2023-03-31T19:01:24.482Z,69.34
2023-03-31T19:03:54.199Z,68.73
2023-03-31T19:06:22.974Z,69.64
2023-03-31T19:08:50.902Z,70.29
2023-03-31T19:11:20.111Z,70.99
2023-03-31T19:13:48.701Z,71.04
2023-03-31T19:16:17.853Z,71.13
2023-03-31T19:18:45.702Z,70.98
2023-03-31T19:21:13.585Z,71.04
2023-03-31T19:23:42.579Z,71.64
2023-03-31T19:26:18.370Z,71.72
2023-03-31T19:28:48.405Z,71.61
2023-03-31T19:31:16.802Z,72.61
2023-03-31T19:33:44.558Z,72.31
2023-03-31T19:36:15.460Z,72.77
2023-03-31T19:38:47.293Z,73.13
2023-03-31T19:41:15.158Z,72.63
2023-03-31T19:43:43.178Z,73.63
2023-03-31T19:46:12.816Z,73.24
2023-03-31T19:48:42.671Z,73.88
2023-03-31T19:51:11.559Z,74.17
2023-03-31T19:53:40.996Z,75.04
2023-03-31T19:56:17.531Z,75.09
2023-03-31T19:58:46.132Z,75.41
2023-03-31T20:01:27.853Z,78.12
2023-03-31T20:03:57.825Z,79.97
2023-03-31T20:06:30.235Z,82.54
2023-03-31T20:09:02.264Z,84.43
2023-03-31T20:11:32.339Z,85.90
2023-03-31T20:14:01.585Z,86.15
2023-03-31T20:16:32.101Z,88.09
2023-03-31T20:19:05.576Z,88.97
2023-03-31T20:21:39.173Z,89.29
2023-03-31T20:24:08.134Z,89.22
2023-03-31T20:26:37.077Z,88.27
2023-03-31T20:29:05.939Z,90.72
2023-03-31T20:31:37.876Z,90.87
2023-03-31T20:34:14.203Z,90.45
2023-03-31T20:36:45.885Z,91.91
2023-03-31T20:39:16.535Z,93.61
2023-03-31T20:41:46.168Z,92.38
2023-03-31T20:44:15.726Z,92.24
2023-03-31T20:46:45.272Z,93.56
2023-03-31T20:49:13.491Z,93.40
2023-03-31T20:51:42.933Z,93.10
2023-03-31T20:54:11.180Z,93.20
2023-03-31T20:56:42.180Z,93.68
2023-03-31T20:59:15.453Z,94.01
2023-03-31T21:01:47.468Z,94.88
2023-03-31T21:04:17.239Z,94.41
2023-03-31T21:06:49.117Z,92.61
2023-03-31T21:09:18.141Z,95.39
2023-03-31T21:11:49.407Z,95.87
2023-03-31T21:14:17.893Z,95.97
2023-03-31T21:16:45.954Z,95.39
2023-03-31T21:19:15.004Z,95.87
2023-03-31T21:21:43.474Z,96.26
2023-03-31T21:24:14.941Z,96.34
2023-03-31T21:26:42.881Z,97.27
2023-03-31T21:29:10.983Z,98.11
2023-03-31T21:31:39.310Z,96.79
2023-03-31T21:34:07.223Z,97.62
2023-03-31T21:36:35.179Z,97.84
2023-03-31T21:39:02.995Z,96.74
2023-03-31T21:41:32.263Z,96.86
2023-03-31T21:44:02.390Z,96.87
2023-03-31T21:46:33.514Z,97.25
2023-03-31T21:49:03.816Z,98.35
2023-03-31T21:51:35.103Z,99.12
2023-03-31T21:54:03.048Z,99.33
2023-03-31T21:56:32.003Z,98.35
2023-03-31T21:59:01.700Z,98.98
2023-03-31T22:01:29.678Z,97.84
2023-03-31T22:03:57.553Z,99.17
2023-03-31T22:06:25.645Z,99.52
2023-03-31T22:08:53.437Z,98.38
2023-03-31T22:11:23.081Z,97.64
2023-03-31T22:13:51.669Z,97.63
2023-03-31T22:16:23.201Z,97.51
2023-03-31T22:18:53.068Z,97.74
2023-03-31T22:21:27.586Z,96.71
2023-03-31T22:24:01.488Z,97.53
2023-03-31T22:26:31.449Z,98.02
2023-03-31T22:29:00.265Z,98.80
2023-03-31T22:31:28.728Z,99.31
2023-03-31T22:33:56.553Z,99.10
2023-03-31T22:36:24.387Z,98.91
2023-03-31T22:38:53.010Z,99.43
2023-03-31T22:41:24.384Z,100.00
2023-03-31T22:43:52.466Z,100.00
2023-03-31T22:46:21.364Z,100.00
2023-03-31T22:48:50.650Z,100.00
2023-03-31T22:51:18.684Z,100.00
2023-03-31T22:53:54.515Z,100.00
2023-03-31T22:56:24.714Z,100.00
2023-03-31T22:58:53.125Z,100.00
2023-03-31T23:01:24.424Z,100.00
2023-03-31T23:03:53.318Z,100.00
2023-03-31T23:06:21.079Z,100.00
2023-03-31T23:08:52.733Z,100.00
2023-03-31T23:11:20.644Z,100.00
2023-03-31T23:13:48.528Z,100.00
2023-03-31T23:16:27.591Z,100.00
2023-03-31T23:18:57.178Z,100.00
2023-03-31T23:21:28.551Z,100.00
2023-03-31T23:24:03.131Z,100.00
2023-03-31T23:26:33.777Z,100.00
2023-03-31T23:29:04.378Z,100.00
2023-03-31T23:31:34.605Z,100.00
2023-03-31T23:34:03.356Z,100.00
2023-03-31T23:36:31.349Z,100.00
2023-03-31T23:38:59.185Z,100.00
2023-03-31T23:41:29.124Z,100.00
2023-03-31T23:43:58.025Z,100.00
2023-03-31T23:46:26.247Z,100.00
2023-03-31T23:48:56.097Z,100.00
2023-03-31T23:51:24.674Z,100.00
2023-03-31T23:53:53.136Z,100.00
2023-03-31T23:56:21.321Z,100.00
2023-03-31T23:58:49.165Z,100.00
